createdAt,value
2019-02-23T00:02:34.884Z,103142.34
2019-02-23T00:07:41.924Z,103149.70
2019-02-23T00:12:48.980Z,103154.83
2019-02-23T00:17:56.008Z,103148.64
2019-02-23T00:23:03.004Z,103128.87
2019-02-23T00:28:10.061Z,103128.91
2019-02-23T00:33:17.071Z,103140.55
2019-02-23T00:38:24.160Z,103150.78
2019-02-23T00:43:32.147Z,103155.53
2019-02-23T00:48:39.239Z,103169.02
2019-02-23T00:53:46.325Z,103159.11
2019-02-23T00:58:53.388Z,103144.35
2019-02-23T01:04:00.410Z,103145.48
2019-02-23T01:09:07.472Z,103166.94
2019-02-23T01:14:14.691Z,103160.28
2019-02-23T01:19:21.847Z,103160.35
2019-02-23T01:24:28.835Z,103161.19
2019-02-23T01:29:35.978Z,103146.03
2019-02-23T01:34:42.992Z,103143.70
2019-02-23T01:39:50.059Z,103128.27
2019-02-23T01:44:57.052Z,103150.50
2019-02-23T01:50:04.326Z,103149.00
2019-02-23T01:55:11.451Z,103140.80
2019-02-23T02:00:18.795Z,103133.50
2019-02-23T02:05:26.053Z,103118.63
2019-02-23T02:10:33.096Z,103102.41
2019-02-23T02:15:40.601Z,103094.36
2019-02-23T02:20:47.585Z,103082.38
2019-02-23T02:25:54.575Z,103084.73
2019-02-23T02:31:01.642Z,103065.05
2019-02-23T02:36:08.884Z,103052.12
2019-02-23T02:41:15.907Z,103055.77
2019-02-23T02:46:22.974Z,103040.73
2019-02-23T02:51:29.969Z,103056.66
2019-02-23T02:56:36.968Z,103044.05
2019-02-23T03:01:44.031Z,103036.79
2019-02-23T03:06:51.124Z,103046.20
2019-02-23T03:11:58.137Z,103046.70
2019-02-23T03:17:05.265Z,103038.91
2019-02-23T03:22:12.285Z,103048.91
2019-02-23T03:27:20.342Z,103048.02
2019-02-23T03:32:27.397Z,103037.48
2019-02-23T03:37:34.465Z,103030.94
2019-02-23T03:42:41.585Z,103021.87
2019-02-23T03:47:48.578Z,103013.45
2019-02-23T03:52:55.616Z,103010.27
2019-02-23T03:58:02.670Z,103007.27
2019-02-23T04:03:09.646Z,103010.34
2019-02-23T04:08:16.726Z,103001.41
2019-02-23T04:13:23.722Z,103012.92
2019-02-23T04:18:30.789Z,103012.47
2019-02-23T04:23:37.799Z,103019.58
2019-02-23T04:28:44.851Z,103011.40
2019-02-23T04:33:52.080Z,102998.64
2019-02-23T04:38:59.347Z,103010.11
2019-02-23T04:44:06.370Z,103015.02
2019-02-23T04:49:13.428Z,103015.34
2019-02-23T04:54:21.743Z,103011.10
2019-02-23T04:59:29.842Z,103005.91
2019-02-23T05:04:36.775Z,103007.25
2019-02-23T05:09:43.750Z,103014.23
2019-02-23T05:14:50.739Z,103008.53
2019-02-23T05:19:57.733Z,103007.30
2019-02-23T05:25:04.831Z,103008.16
2019-02-23T05:30:12.093Z,103024.84
2019-02-23T05:35:19.570Z,103025.39
2019-02-23T05:40:26.557Z,103026.70
2019-02-23T05:45:33.625Z,103028.82
2019-02-23T05:50:40.767Z,103029.77
2019-02-23T05:55:48.047Z,103031.47
2019-02-23T06:00:55.094Z,103035.45
2019-02-23T06:06:03.113Z,103046.83
2019-02-23T06:11:10.283Z,103055.55
2019-02-23T06:16:17.424Z,103056.41
2019-02-23T06:21:24.445Z,103071.31
2019-02-23T06:26:31.632Z,103082.69
2019-02-23T06:31:40.385Z,103090.01
2019-02-23T06:36:47.393Z,103106.67
2019-02-23T06:41:54.484Z,103114.52
2019-02-23T06:47:01.533Z,103125.00
2019-02-23T06:52:10.939Z,103125.34
2019-02-23T06:57:19.295Z,103116.96
2019-02-23T07:02:26.281Z,103116.37
2019-02-23T07:07:33.291Z,103149.97
2019-02-23T07:12:40.262Z,103142.42
2019-02-23T07:17:47.461Z,103146.27
2019-02-23T07:22:55.531Z,103142.56
2019-02-23T07:28:02.619Z,103144.53
2019-02-23T07:33:11.333Z,103149.09
2019-02-23T07:38:18.340Z,103153.24
2019-02-23T07:43:25.471Z,103156.97
2019-02-23T07:48:32.465Z,103161.59
2019-02-23T07:53:39.437Z,103174.98
2019-02-23T07:58:46.493Z,103169.63
2019-02-23T08:03:53.980Z,103167.59
2019-02-23T08:09:00.985Z,103184.75
2019-02-23T08:14:09.641Z,103185.38
2019-02-23T08:19:16.649Z,103195.49
2019-02-23T08:24:23.708Z,103210.72
2019-02-23T08:29:30.699Z,103206.72
2019-02-23T08:34:37.724Z,103184.84
2019-02-23T08:39:45.019Z,103191.10
2019-02-23T08:44:52.215Z,103166.09
2019-02-23T08:49:59.203Z,103165.27
2019-02-23T08:55:07.171Z,103161.05
2019-02-23T09:00:15.789Z,103155.23
2019-02-23T09:05:22.921Z,103133.73
2019-02-23T09:10:30.126Z,103148.30
2019-02-23T09:15:37.226Z,103122.03
2019-02-23T09:20:44.292Z,103114.85
2019-02-23T09:25:51.355Z,103110.67
2019-02-23T09:30:58.430Z,103107.19
2019-02-23T09:36:05.512Z,103102.70
2019-02-23T09:41:12.565Z,103098.41
2019-02-23T09:46:19.599Z,103094.02
2019-02-23T09:51:26.601Z,103083.44
2019-02-23T09:56:33.603Z,103079.84
2019-02-23T10:01:40.605Z,103063.83
2019-02-23T10:06:47.706Z,103065.64
2019-02-23T10:11:55.759Z,103067.63
2019-02-23T10:17:02.746Z,103067.27
2019-02-23T10:22:09.881Z,103041.57
2019-02-23T10:27:16.848Z,103055.86
2019-02-23T10:32:23.915Z,103064.19
2019-02-23T10:37:30.991Z,103071.08
2019-02-23T10:42:38.001Z,103071.08
2019-02-23T10:47:45.264Z,103071.59
2019-02-23T10:52:52.335Z,103053.03
2019-02-23T10:57:59.518Z,103053.03
2019-02-23T11:03:06.607Z,103045.66
2019-02-23T11:08:13.564Z,103051.86
2019-02-23T11:13:20.693Z,103041.03
2019-02-23T11:18:27.871Z,103033.56
2019-02-23T11:23:43.725Z,103017.31
2019-02-23T11:28:44.821Z,103009.65
2019-02-23T11:33:51.868Z,102989.80
2019-02-23T11:38:58.941Z,102986.06
2019-02-23T11:44:06.122Z,102972.92
2019-02-23T11:49:13.226Z,102989.73
2019-02-23T11:54:20.479Z,102982.26
2019-02-23T11:59:27.531Z,102988.59
2019-02-23T12:04:35.746Z,102987.59
2019-02-23T12:09:42.735Z,102989.65
2019-02-23T12:14:49.722Z,102986.93
2019-02-23T12:19:56.693Z,102983.73
2019-02-23T12:25:03.772Z,102974.38
2019-02-23T12:30:10.973Z,102956.69
2019-02-23T12:35:18.021Z,102948.30
2019-02-23T12:40:25.094Z,102949.52
2019-02-23T12:45:32.463Z,102940.52
2019-02-23T12:50:39.458Z,102940.95
2019-02-23T12:55:46.445Z,102933.72
2019-02-23T13:00:53.549Z,102930.68
2019-02-23T13:06:00.601Z,102936.41
2019-02-23T13:11:07.742Z,102929.95
2019-02-23T13:16:36.914Z,102924.91
2019-02-23T13:22:49.608Z,102914.37
2019-02-23T13:28:28.405Z,102909.66
2019-02-23T13:34:19.051Z,102902.07
2019-02-23T13:39:34.250Z,102902.96
2019-02-23T13:45:11.420Z,102901.23
2019-02-23T13:50:53.816Z,102908.50
2019-02-23T13:56:36.639Z,102903.59
2019-02-23T14:02:27.671Z,102894.61
2019-02-23T14:08:10.547Z,102891.11
2019-02-23T14:14:03.945Z,102897.77
2019-02-23T14:19:56.365Z,102896.94
2019-02-23T14:25:45.690Z,102906.05
2019-02-23T14:31:29.777Z,102904.48
2019-02-23T14:37:17.975Z,102903.41
2019-02-23T14:42:38.917Z,102894.28
2019-02-23T14:48:22.220Z,102888.45
2019-02-23T14:53:44.396Z,102893.70
2019-02-23T14:59:14.077Z,102887.44
2019-02-23T15:04:44.772Z,102869.30
2019-02-23T15:10:04.111Z,102845.23
2019-02-23T15:15:33.257Z,102835.19
2019-02-23T15:21:01.913Z,102839.19
2019-02-23T15:26:53.101Z,102829.33
2019-02-23T15:32:45.978Z,102825.09
2019-02-23T15:38:23.001Z,102827.98
2019-02-23T15:44:15.501Z,102823.88
2019-02-23T15:49:33.548Z,102819.77
2019-02-23T15:54:40.643Z,102834.42
2019-02-23T15:59:47.935Z,102835.89
2019-02-23T16:04:55.097Z,102855.41
2019-02-23T16:10:03.255Z,102859.35
2019-02-23T16:15:10.749Z,102868.11
2019-02-23T16:20:17.876Z,102856.20
2019-02-23T16:25:24.828Z,102863.88
2019-02-23T16:30:31.810Z,102873.09
2019-02-23T16:35:38.855Z,102873.45
2019-02-23T16:40:45.909Z,102872.58
2019-02-23T16:45:53.001Z,102861.92
2019-02-23T16:51:00.051Z,102880.58
2019-02-23T16:56:07.067Z,102884.86
2019-02-23T17:01:14.489Z,102879.45
2019-02-23T17:06:21.729Z,102880.72
2019-02-23T17:11:28.829Z,102888.77
2019-02-23T17:16:37.264Z,102880.34
2019-02-23T17:21:44.284Z,102872.16
2019-02-23T17:26:51.453Z,102878.06
2019-02-23T17:31:58.415Z,102885.70
2019-02-23T17:37:05.417Z,102878.95
2019-02-23T17:42:12.540Z,102879.21
2019-02-23T17:47:19.491Z,102876.95
2019-02-23T17:52:26.885Z,102874.66
2019-02-23T17:57:33.892Z,102869.20
2019-02-23T18:02:40.873Z,102880.53
2019-02-23T18:07:47.892Z,102859.17
2019-02-23T18:12:54.918Z,102849.47
2019-02-23T18:18:01.940Z,102837.03
2019-02-23T18:23:09.244Z,102828.38
2019-02-23T18:28:16.292Z,102829.63
2019-02-23T18:33:23.278Z,102837.11
2019-02-23T18:38:30.311Z,102829.16
2019-02-23T18:43:37.305Z,102822.15
2019-02-23T18:48:44.395Z,102825.70
2019-02-23T18:53:51.436Z,102812.24
2019-02-23T18:58:58.460Z,102813.66
2019-02-23T19:04:05.585Z,102817.46
2019-02-23T19:09:12.649Z,102817.46
2019-02-23T19:14:19.785Z,102822.56
2019-02-23T19:19:26.787Z,102831.78
2019-02-23T19:24:33.909Z,102828.23
2019-02-23T19:29:40.871Z,102832.02
2019-02-23T19:34:48.286Z,102817.92
2019-02-23T19:39:55.296Z,102817.92
2019-02-23T19:45:02.273Z,102806.44
2019-02-23T19:50:14.243Z,102806.44
2019-02-23T19:55:24.659Z,102803.07
2019-02-23T20:00:31.865Z,102784.60
2019-02-23T20:05:38.891Z,102787.73
2019-02-23T20:10:45.909Z,102793.13
2019-02-23T20:15:53.619Z,102787.84
2019-02-23T20:21:00.728Z,102785.75
2019-02-23T20:26:08.014Z,102791.10
2019-02-23T20:31:14.990Z,102785.64
2019-02-23T20:36:21.960Z,102791.05
2019-02-23T20:41:29.049Z,102790.95
2019-02-23T20:46:36.042Z,102788.67
2019-02-23T20:51:43.010Z,102789.08
2019-02-23T20:56:50.160Z,102787.11
2019-02-23T21:01:57.331Z,102795.66
2019-02-23T21:07:04.335Z,102792.25
2019-02-23T21:12:11.320Z,102788.80
2019-02-23T21:17:18.501Z,102789.26
2019-02-23T21:22:25.467Z,102788.58
2019-02-23T21:27:32.536Z,102791.12
2019-02-23T21:32:39.619Z,102787.45
2019-02-23T21:37:46.685Z,102781.20
2019-02-23T21:42:53.803Z,102778.69
2019-02-23T21:48:01.946Z,102770.93
2019-02-23T21:53:09.073Z,102770.00
2019-02-23T21:58:16.070Z,102770.97
2019-02-23T22:03:23.072Z,102765.06
2019-02-23T22:08:30.148Z,102768.44
2019-02-23T22:13:37.201Z,102768.08
2019-02-23T22:18:44.220Z,102755.80
2019-02-23T22:23:51.273Z,102754.23
2019-02-23T22:28:58.367Z,102746.84
2019-02-23T22:34:05.553Z,102751.92
2019-02-23T22:39:12.540Z,102748.13
2019-02-23T22:44:19.509Z,102754.13
2019-02-23T22:49:26.525Z,102749.83
2019-02-23T22:54:33.523Z,102744.63
2019-02-23T22:59:41.788Z,102753.74
2019-02-23T23:04:49.995Z,102763.48
2019-02-23T23:09:57.012Z,102763.91
2019-02-23T23:15:04.155Z,102760.53
2019-02-23T23:20:12.104Z,102758.52
2019-02-23T23:25:20.789Z,102753.56
2019-02-23T23:30:27.932Z,102762.83
2019-02-23T23:35:35.003Z,102765.13
2019-02-23T23:40:43.084Z,102759.95
2019-02-23T23:45:55.940Z,102747.84
2019-02-23T23:51:04.553Z,102747.84
2019-02-23T23:56:11.615Z,102751.38
